createdAt,value
2017-04-18T00:00:10.469Z,64.80
2017-04-18T00:01:07.829Z,64.80
2017-04-18T00:02:06.810Z,64.70
2017-04-18T00:03:04.196Z,64.70
2017-04-18T00:04:02.100Z,64.50
2017-04-18T00:04:59.564Z,64.80
2017-04-18T00:05:56.966Z,64.90
2017-04-18T00:06:55.697Z,64.80
2017-04-18T00:07:53.021Z,64.70
2017-04-18T00:08:51.141Z,65.10
2017-04-18T00:09:48.474Z,65.10
2017-04-18T00:10:46.253Z,65.40
2017-04-18T00:11:44.402Z,65.40
2017-04-18T00:12:42.710Z,65.70
2017-04-18T00:13:40.074Z,65.80
2017-04-18T00:14:38.201Z,65.70
2017-04-18T00:15:36.340Z,65.70
2017-04-18T00:16:34.521Z,65.70
2017-04-18T00:17:31.842Z,66.00
2017-04-18T00:18:29.198Z,66.20
2017-04-18T00:19:26.514Z,66.20
2017-04-18T00:20:24.589Z,66.60
2017-04-18T00:21:21.995Z,66.50
2017-04-18T00:22:20.224Z,66.60
2017-04-18T00:23:17.552Z,66.50
2017-04-18T00:24:14.929Z,67.10
2017-04-18T00:25:12.577Z,67.50
2017-04-18T00:26:10.822Z,67.30
2017-04-18T00:27:09.021Z,67.30
2017-04-18T00:28:06.505Z,67.50
2017-04-18T00:29:04.674Z,67.20
2017-04-18T00:30:02.034Z,67.10
2017-04-18T00:31:00.330Z,67.30
2017-04-18T00:31:58.402Z,67.70
2017-04-18T00:32:55.762Z,67.70
2017-04-18T00:33:54.882Z,67.40
2017-04-18T00:34:52.232Z,67.30
2017-04-18T00:35:49.581Z,67.30
2017-04-18T00:36:46.939Z,68.00
2017-04-18T00:37:44.525Z,67.90
2017-04-18T00:38:41.955Z,67.80
2017-04-18T00:39:39.378Z,68.00
2017-04-18T00:40:37.492Z,67.80
2017-04-18T00:41:34.905Z,67.80
2017-04-18T00:42:32.269Z,68.30
2017-04-18T00:43:29.678Z,68.10
2017-04-18T00:44:27.022Z,68.40
2017-04-18T00:45:25.834Z,68.40
2017-04-18T00:46:23.224Z,68.30
2017-04-18T00:47:21.208Z,69.00
2017-04-18T00:48:19.427Z,68.70
2017-04-18T00:49:16.764Z,68.70
2017-04-18T00:50:14.119Z,68.90
2017-04-18T00:51:12.265Z,69.90
2017-04-18T00:52:09.684Z,69.90
2017-04-18T00:53:07.019Z,69.80
2017-04-18T00:54:05.077Z,69.10
2017-04-18T00:55:02.546Z,69.00
2017-04-18T00:55:59.885Z,69.60
2017-04-18T00:56:57.214Z,69.50
2017-04-18T00:57:55.621Z,70.00
2017-04-18T00:58:53.018Z,70.00
2017-04-18T00:59:50.976Z,70.20
2017-04-18T01:00:49.482Z,70.20
2017-04-18T01:01:47.551Z,69.90
2017-04-18T01:02:44.973Z,69.60
2017-04-18T01:03:42.501Z,69.20
2017-04-18T01:04:39.952Z,70.60
2017-04-18T01:05:37.436Z,70.40
2017-04-18T01:06:34.907Z,70.10
2017-04-18T01:07:32.540Z,70.20
2017-04-18T01:08:30.035Z,70.30
2017-04-18T01:09:28.184Z,70.30
2017-04-18T01:10:25.557Z,70.70
2017-04-18T01:11:22.918Z,70.60
2017-04-18T01:12:21.977Z,70.50
2017-04-18T01:13:19.654Z,70.40
2017-04-18T01:14:18.377Z,70.70
2017-04-18T01:15:15.737Z,70.70
2017-04-18T01:16:13.097Z,70.70
2017-04-18T01:17:11.206Z,70.30
2017-04-18T01:18:09.405Z,70.00
2017-04-18T01:19:06.789Z,69.90
2017-04-18T01:20:04.189Z,70.40
2017-04-18T01:21:02.358Z,71.00
2017-04-18T01:22:01.020Z,71.20
2017-04-18T01:22:58.510Z,71.20
2017-04-18T01:23:56.614Z,71.10
2017-04-18T01:24:53.963Z,71.10
2017-04-18T01:25:52.162Z,71.80
2017-04-18T01:26:50.245Z,71.90
2017-04-18T01:27:48.379Z,71.90
2017-04-18T01:28:46.404Z,71.90
2017-04-18T01:29:43.728Z,72.00
2017-04-18T01:30:43.628Z,72.00
2017-04-18T01:31:41.701Z,71.70
2017-04-18T01:32:39.880Z,72.30
2017-04-18T01:33:37.965Z,72.10
2017-04-18T01:34:35.706Z,72.10
2017-04-18T01:35:33.041Z,72.40
2017-04-18T01:36:30.404Z,72.80
2017-04-18T01:37:28.502Z,72.80
2017-04-18T01:38:25.840Z,73.40
2017-04-18T01:39:23.352Z,72.40
2017-04-18T01:40:26.354Z,72.20
2017-04-18T01:43:30.872Z,72.30
2017-04-18T01:44:34.446Z,72.30
2017-04-18T01:45:37.321Z,72.70
2017-04-18T01:46:35.858Z,72.60
2017-04-18T01:47:33.652Z,73.00
2017-04-18T01:48:31.033Z,73.50
2017-04-18T01:49:28.462Z,73.60
2017-04-18T01:50:25.808Z,73.60
2017-04-18T01:51:23.885Z,73.50
2017-04-18T01:52:21.245Z,73.40
2017-04-18T01:53:18.655Z,73.20
2017-04-18T01:54:16.002Z,72.90
2017-04-18T01:55:14.244Z,72.80
2017-04-18T01:56:12.404Z,72.80
2017-04-18T01:57:10.537Z,73.70
2017-04-18T01:58:07.890Z,73.70
2017-04-18T01:59:05.254Z,73.50
2017-04-18T02:00:11.208Z,72.80
2017-04-18T02:01:08.635Z,73.20
2017-04-18T02:02:06.064Z,72.70
2017-04-18T02:03:04.167Z,72.80
2017-04-18T02:04:01.737Z,72.80
2017-04-18T02:04:59.126Z,73.00
2017-04-18T02:05:57.171Z,73.30
2017-04-18T02:06:54.651Z,73.30
2017-04-18T02:07:51.981Z,73.70
2017-04-18T02:08:49.370Z,73.60
2017-04-18T02:09:47.992Z,74.00
2017-04-18T02:10:45.488Z,74.00
2017-04-18T02:11:43.674Z,74.00
2017-04-18T02:12:41.010Z,74.70
2017-04-18T02:13:39.145Z,74.20
2017-04-18T02:14:36.468Z,74.20
2017-04-18T02:15:33.824Z,74.20
2017-04-18T02:16:31.245Z,74.10
2017-04-18T02:17:29.417Z,74.10
2017-04-18T02:18:26.762Z,74.00
2017-04-18T02:19:25.156Z,73.90
2017-04-18T02:20:23.276Z,73.60
2017-04-18T02:21:21.473Z,73.60
2017-04-18T02:22:19.659Z,73.50
2017-04-18T02:23:17.002Z,73.50
2017-04-18T02:24:15.273Z,73.90
2017-04-18T02:25:14.189Z,72.90
2017-04-18T02:26:12.346Z,73.20
2017-04-18T02:27:09.801Z,73.20
2017-04-18T02:28:07.281Z,73.00
2017-04-18T02:29:04.798Z,72.90
2017-04-18T02:30:02.349Z,74.40
2017-04-18T02:31:00.534Z,74.00
2017-04-18T02:31:57.877Z,74.00
2017-04-18T02:32:55.326Z,73.40
2017-04-18T02:33:53.422Z,73.30
2017-04-18T02:34:50.762Z,73.40
2017-04-18T02:35:48.118Z,74.50
2017-04-18T02:36:46.477Z,74.30
2017-04-18T02:37:43.897Z,74.00
2017-04-18T02:38:42.072Z,73.60
2017-04-18T02:39:39.432Z,75.20
2017-04-18T02:40:38.261Z,75.20
2017-04-18T02:41:36.270Z,74.60
2017-04-18T02:42:33.729Z,74.00
2017-04-18T02:43:31.075Z,74.90
2017-04-18T02:44:28.500Z,73.80
2017-04-18T02:45:25.843Z,73.70
2017-04-18T02:46:23.321Z,74.10
2017-04-18T02:47:22.448Z,74.10
2017-04-18T02:48:20.586Z,74.40
2017-04-18T02:49:18.413Z,74.40
2017-04-18T02:50:15.829Z,74.80
2017-04-18T02:51:13.197Z,75.10
2017-04-18T02:52:10.583Z,75.70
2017-04-18T02:53:08.737Z,74.70
2017-04-18T02:54:06.703Z,74.70
2017-04-18T02:55:04.752Z,74.40
2017-04-18T02:56:02.846Z,74.20
2017-04-18T02:57:01.617Z,74.30
2017-04-18T02:57:59.051Z,74.30
2017-04-18T02:58:56.680Z,74.40
2017-04-18T02:59:54.065Z,74.80
2017-04-18T03:00:51.436Z,75.10
2017-04-18T03:01:48.789Z,75.40
2017-04-18T03:02:46.117Z,75.30
2017-04-18T03:03:43.558Z,75.10
2017-04-18T03:04:41.128Z,75.10
2017-04-18T03:05:39.349Z,75.20
2017-04-18T03:06:37.422Z,75.30
2017-04-18T03:07:34.827Z,75.30
2017-04-18T03:08:32.669Z,75.00
2017-04-18T03:09:30.452Z,75.20
2017-04-18T03:10:28.185Z,75.70
2017-04-18T03:11:25.588Z,75.50
2017-04-18T03:12:22.932Z,75.60
2017-04-18T03:13:20.934Z,75.70
2017-04-18T03:14:19.023Z,76.00
2017-04-18T03:15:16.493Z,75.90
2017-04-18T03:16:15.414Z,75.80
2017-04-18T03:17:14.519Z,75.60
2017-04-18T03:18:11.843Z,75.50
2017-04-18T03:19:09.962Z,75.60
2017-04-18T03:20:08.743Z,75.90
2017-04-18T03:21:06.355Z,75.90
2017-04-18T03:22:03.695Z,75.80
2017-04-18T03:23:01.035Z,75.80
2017-04-18T03:23:58.942Z,75.80
2017-04-18T03:24:57.039Z,75.60
2017-04-18T03:25:54.595Z,75.60
2017-04-18T03:26:52.601Z,75.70
2017-04-18T03:27:50.701Z,75.70
2017-04-18T03:28:49.015Z,75.60
2017-04-18T03:29:46.901Z,75.80
2017-04-18T03:30:44.331Z,75.90
2017-04-18T03:31:42.678Z,75.40
2017-04-18T03:32:40.009Z,75.30
2017-04-18T03:33:38.127Z,75.30
2017-04-18T03:34:36.194Z,75.30
2017-04-18T03:35:33.580Z,75.70
2017-04-18T03:36:30.931Z,75.30
2017-04-18T03:37:28.345Z,75.20
2017-04-18T03:38:25.705Z,75.00
2017-04-18T03:39:23.045Z,75.10
2017-04-18T03:40:20.366Z,75.20
2017-04-18T03:41:17.856Z,74.80
2017-04-18T03:42:15.881Z,74.90
2017-04-18T03:43:13.343Z,74.90
2017-04-18T03:44:10.696Z,74.60
2017-04-18T03:45:09.845Z,74.50
2017-04-18T03:46:07.181Z,74.50
2017-04-18T03:47:05.279Z,74.50
2017-04-18T03:48:03.147Z,74.50
2017-04-18T03:49:01.236Z,74.20
2017-04-18T03:49:58.621Z,74.10
2017-04-18T03:50:56.708Z,74.00
2017-04-18T03:51:54.093Z,73.90
2017-04-18T03:52:52.071Z,73.90
2017-04-18T03:53:49.430Z,73.80
2017-04-18T03:54:46.798Z,73.30
2017-04-18T03:55:45.405Z,73.20
2017-04-18T03:56:42.804Z,73.00
2017-04-18T03:57:40.789Z,72.60
2017-04-18T03:58:39.054Z,71.40
2017-04-18T03:59:37.154Z,71.30
2017-04-18T04:00:34.533Z,71.20
2017-04-18T04:01:31.960Z,71.10
2017-04-18T04:02:29.344Z,70.90
2017-04-18T04:03:26.671Z,70.90
2017-04-18T04:04:24.987Z,70.90
2017-04-18T04:05:22.327Z,70.90
2017-04-18T04:06:19.688Z,70.80
2017-04-18T04:07:17.066Z,70.80
2017-04-18T04:08:15.037Z,70.70
2017-04-18T04:09:13.517Z,70.00
2017-04-18T04:10:13.582Z,70.00
2017-04-18T04:11:11.855Z,70.50
2017-04-18T04:12:09.189Z,70.40
2017-04-18T04:13:06.546Z,70.70
2017-04-18T04:14:03.931Z,70.50
2017-04-18T04:15:02.070Z,70.80
2017-04-18T04:15:59.500Z,70.70
2017-04-18T04:16:56.857Z,70.80
2017-04-18T04:17:54.966Z,71.20
2017-04-18T04:18:52.348Z,71.20
2017-04-18T04:19:49.669Z,71.30
2017-04-18T04:20:48.489Z,71.70
2017-04-18T04:21:45.920Z,71.70
2017-04-18T04:22:44.799Z,72.00
2017-04-18T04:23:42.167Z,72.00
2017-04-18T04:24:39.581Z,72.00
2017-04-18T04:25:37.542Z,72.20
2017-04-18T04:26:35.054Z,72.30
2017-04-18T04:27:33.770Z,72.60
2017-04-18T04:28:31.121Z,72.70
2017-04-18T04:29:28.505Z,72.70
2017-04-18T04:30:26.942Z,72.80
2017-04-18T04:31:25.500Z,72.50
2017-04-18T04:32:22.857Z,72.60
2017-04-18T04:33:21.137Z,72.70
2017-04-18T04:34:18.697Z,72.90
2017-04-18T04:35:16.603Z,72.80
2017-04-18T04:36:14.717Z,72.70
2017-04-18T04:37:12.113Z,72.60
2017-04-18T04:38:09.499Z,72.80
2017-04-18T04:39:06.890Z,72.80
2017-04-18T04:40:06.341Z,73.00
2017-04-18T04:41:03.865Z,73.00
2017-04-18T04:42:02.142Z,73.10
2017-04-18T04:42:59.610Z,72.90
2017-04-18T04:43:57.029Z,73.30
2017-04-18T04:44:54.376Z,73.30
2017-04-18T04:45:51.722Z,73.20
2017-04-18T04:46:49.913Z,73.40
2017-04-18T04:47:47.911Z,73.70
2017-04-18T04:48:45.411Z,73.90
2017-04-18T04:49:42.752Z,74.00
2017-04-18T04:50:40.152Z,74.20
2017-04-18T04:51:38.114Z,73.50
2017-04-18T04:52:35.522Z,73.90
2017-04-18T04:53:32.904Z,74.10
2017-04-18T04:54:30.872Z,73.90
2017-04-18T04:55:28.208Z,74.00
2017-04-18T04:56:25.542Z,73.80
2017-04-18T04:57:22.963Z,73.60
2017-04-18T04:58:20.326Z,73.90
2017-04-18T04:59:18.530Z,73.60
2017-04-18T05:00:15.973Z,73.50
2017-04-18T05:01:13.323Z,73.20
2017-04-18T05:02:10.669Z,73.00
2017-04-18T05:03:08.736Z,72.20
2017-04-18T05:04:06.638Z,72.00
2017-04-18T05:05:04.115Z,71.60
2017-04-18T05:06:01.657Z,71.50
2017-04-18T05:06:59.023Z,71.80
2017-04-18T05:07:57.760Z,72.10
2017-04-18T05:08:55.831Z,72.30
2017-04-18T05:09:53.289Z,72.60
2017-04-18T05:10:51.397Z,72.60
2017-04-18T05:11:48.794Z,72.50
2017-04-18T05:12:46.197Z,72.70
2017-04-18T05:13:43.633Z,72.20
2017-04-18T05:14:41.761Z,72.40
2017-04-18T05:15:39.213Z,72.30
2017-04-18T05:16:37.106Z,72.30
2017-04-18T05:17:34.512Z,72.00
2017-04-18T05:18:32.681Z,72.60
2017-04-18T05:19:30.087Z,72.50
2017-04-18T05:20:27.458Z,72.10
2017-04-18T05:21:25.642Z,71.90
2017-04-18T05:22:23.062Z,71.90
2017-04-18T05:23:22.232Z,72.00
2017-04-18T05:24:19.574Z,72.00
2017-04-18T05:25:17.436Z,72.40
2017-04-18T05:26:16.210Z,72.90
2017-04-18T05:27:14.345Z,72.90
2017-04-18T05:28:12.434Z,73.00
2017-04-18T05:29:11.238Z,73.60
2017-04-18T05:30:09.981Z,73.60
2017-04-18T05:31:08.294Z,73.10
2017-04-18T05:32:05.792Z,73.20
2017-04-18T05:33:03.136Z,72.90
2017-04-18T05:34:00.479Z,72.70
2017-04-18T05:34:57.870Z,72.40
2017-04-18T05:35:55.277Z,71.90
2017-04-18T05:36:52.704Z,71.90
2017-04-18T05:37:50.194Z,72.40
2017-04-18T05:38:47.553Z,72.40
2017-04-18T05:39:45.753Z,72.10
2017-04-18T05:40:43.096Z,72.10
2017-04-18T05:41:40.462Z,72.20
2017-04-18T05:42:37.904Z,72.20
2017-04-18T05:43:36.032Z,71.60
2017-04-18T05:44:33.357Z,71.60
2017-04-18T05:45:31.607Z,71.60
2017-04-18T05:46:28.935Z,71.60
2017-04-18T05:47:26.333Z,71.80
2017-04-18T05:48:24.521Z,72.00
2017-04-18T05:49:21.850Z,72.00
2017-04-18T05:50:19.222Z,72.30
2017-04-18T05:51:17.209Z,72.10
2017-04-18T05:52:14.561Z,72.00
2017-04-18T05:53:12.009Z,72.20
2017-04-18T05:54:09.352Z,72.40
2017-04-18T05:55:07.473Z,72.10
2017-04-18T05:56:04.837Z,72.00
2017-04-18T05:57:02.283Z,71.80
2017-04-18T05:58:00.338Z,72.10
2017-04-18T05:58:57.825Z,71.80
2017-04-18T05:59:55.207Z,71.90
2017-04-18T06:00:52.607Z,72.00
2017-04-18T06:01:49.989Z,71.90
2017-04-18T06:02:48.015Z,72.20
2017-04-18T06:03:45.446Z,72.30
2017-04-18T06:04:42.873Z,71.90
2017-04-18T06:05:40.245Z,72.00
2017-04-18T06:06:37.678Z,72.10
2017-04-18T06:07:35.060Z,71.80
2017-04-18T06:08:33.315Z,72.10
2017-04-18T06:09:30.809Z,71.80
2017-04-18T06:10:28.193Z,71.60
2017-04-18T06:11:25.597Z,71.70
2017-04-18T06:12:22.944Z,71.60
2017-04-18T06:13:20.352Z,71.80
2017-04-18T06:14:17.801Z,71.50
2017-04-18T06:15:15.799Z,71.40
2017-04-18T06:16:13.188Z,71.70
2017-04-18T06:17:10.525Z,71.60
2017-04-18T06:18:08.492Z,71.70
2017-04-18T06:19:06.744Z,71.30
2017-04-18T06:20:04.193Z,71.30
2017-04-18T06:21:01.550Z,71.70
2017-04-18T06:21:59.465Z,71.30
2017-04-18T06:22:57.751Z,71.10
2017-04-18T06:23:55.194Z,71.00
2017-04-18T06:24:53.541Z,71.10
2017-04-18T06:25:51.734Z,71.20
2017-04-18T06:26:49.114Z,71.20
2017-04-18T06:27:46.692Z,71.20
2017-04-18T06:28:44.067Z,71.30
2017-04-18T06:29:41.419Z,71.40
2017-04-18T06:30:39.554Z,71.40
2017-04-18T06:31:37.747Z,72.60
2017-04-18T06:32:35.110Z,72.60
2017-04-18T06:33:33.142Z,72.30
2017-04-18T06:34:30.494Z,72.10
2017-04-18T06:35:28.624Z,71.90
2017-04-18T06:36:26.082Z,71.90
2017-04-18T06:37:23.453Z,71.70
2017-04-18T06:38:20.921Z,72.00
2017-04-18T06:39:18.311Z,72.20
2017-04-18T06:40:15.974Z,71.00
2017-04-18T06:41:14.383Z,70.60
2017-04-18T06:42:11.790Z,70.20
2017-04-18T06:43:09.157Z,71.30
2017-04-18T06:44:08.348Z,69.10
2017-04-18T06:45:05.720Z,69.10
2017-04-18T06:46:03.130Z,69.20
2017-04-18T06:47:00.570Z,70.50
2017-04-18T06:47:58.017Z,69.90
2017-04-18T06:48:56.158Z,70.20
2017-04-18T06:49:53.514Z,70.20
2017-04-18T06:50:50.886Z,70.00
2017-04-18T06:51:49.102Z,69.10
2017-04-18T06:52:47.343Z,69.60
2017-04-18T06:53:45.290Z,69.60
2017-04-18T06:54:42.810Z,70.30
2017-04-18T06:55:40.162Z,69.80
2017-04-18T06:56:37.518Z,68.70
2017-04-18T06:57:35.593Z,69.30
2017-04-18T06:58:34.013Z,68.90
2017-04-18T06:59:31.364Z,68.80
2017-04-18T07:00:29.508Z,69.00
2017-04-18T07:01:26.900Z,69.00
2017-04-18T07:02:24.293Z,68.20
2017-04-18T07:03:21.741Z,68.30
2017-04-18T07:04:19.558Z,67.40
2017-04-18T07:05:17.779Z,67.80
2017-04-18T07:06:15.746Z,67.80
2017-04-18T07:07:13.156Z,68.80
2017-04-18T07:08:10.702Z,67.70
2017-04-18T07:09:08.076Z,67.50
2017-04-18T07:10:06.417Z,66.30
2017-04-18T07:11:04.518Z,67.40
2017-04-18T07:12:03.636Z,67.70
2017-04-18T07:13:01.825Z,67.70
2017-04-18T07:13:59.175Z,66.30
2017-04-18T07:14:57.565Z,66.40
2017-04-18T07:15:54.942Z,66.50
2017-04-18T07:16:53.166Z,66.10
2017-04-18T07:17:50.590Z,66.00
2017-04-18T07:18:48.701Z,65.40
2017-04-18T07:19:46.092Z,65.40
2017-04-18T07:20:43.426Z,65.70
2017-04-18T07:21:41.441Z,65.60
2017-04-18T07:22:38.848Z,66.00
2017-04-18T07:23:37.333Z,65.40
2017-04-18T07:24:34.739Z,65.10
2017-04-18T07:25:33.571Z,65.40
2017-04-18T07:26:32.446Z,64.90
2017-04-18T07:27:31.010Z,64.80
2017-04-18T07:28:29.070Z,65.40
2017-04-18T07:29:26.416Z,65.20
2017-04-18T07:30:23.749Z,64.60
2017-04-18T07:31:21.098Z,65.20
2017-04-18T07:32:19.374Z,65.30
2017-04-18T07:33:16.772Z,65.30
2017-04-18T07:34:14.144Z,64.00
2017-04-18T07:35:11.485Z,64.20
2017-04-18T07:36:08.941Z,65.10
2017-04-18T07:37:07.540Z,65.10
2017-04-18T07:38:05.002Z,62.90
2017-04-18T07:39:02.435Z,62.70
2017-04-18T07:40:00.541Z,62.20
2017-04-18T07:40:59.546Z,63.00
2017-04-18T07:41:56.893Z,63.10
2017-04-18T07:42:55.071Z,64.80
2017-04-18T07:43:53.472Z,64.10
2017-04-18T07:44:50.865Z,64.30
2017-04-18T07:45:48.968Z,64.40
2017-04-18T07:46:47.287Z,64.20
2017-04-18T07:47:44.682Z,63.30
2017-04-18T07:48:42.052Z,64.00
2017-04-18T07:49:40.087Z,63.40
2017-04-18T07:50:37.441Z,62.40
2017-04-18T07:51:35.769Z,63.40
2017-04-18T07:52:33.238Z,61.50
2017-04-18T07:53:30.564Z,61.60
2017-04-18T07:54:27.953Z,61.80
2017-04-18T07:55:25.546Z,62.20
2017-04-18T07:56:22.939Z,60.00
2017-04-18T07:57:20.286Z,61.20
2017-04-18T07:58:18.901Z,61.40
2017-04-18T07:59:16.274Z,62.00
2017-04-18T08:00:14.269Z,63.40
2017-04-18T08:01:13.018Z,61.00
2017-04-18T08:02:10.421Z,60.80
2017-04-18T08:03:07.869Z,61.20
2017-04-18T08:04:05.260Z,61.20
2017-04-18T08:05:03.449Z,60.30
2017-04-18T08:06:00.987Z,60.30
2017-04-18T08:06:58.472Z,59.30
2017-04-18T08:07:56.474Z,59.00
2017-04-18T08:08:55.484Z,57.50
2017-04-18T08:09:54.667Z,55.60
2017-04-18T08:10:52.946Z,56.70
2017-04-18T08:11:50.346Z,56.70
2017-04-18T08:12:49.033Z,57.70
2017-04-18T08:13:46.474Z,57.70
2017-04-18T08:14:43.925Z,55.30
2017-04-18T08:15:41.295Z,55.20
2017-04-18T08:16:38.665Z,56.80
2017-04-18T08:17:36.910Z,57.60
2017-04-18T08:18:35.022Z,55.20
2017-04-18T08:19:32.605Z,55.10
2017-04-18T08:20:30.745Z,51.50
2017-04-18T08:21:28.118Z,51.40
2017-04-18T08:22:25.509Z,49.60
2017-04-18T08:23:23.515Z,52.30
2017-04-18T08:24:21.727Z,53.60
2017-04-18T08:25:19.712Z,53.60
2017-04-18T08:26:17.899Z,50.90
2017-04-18T08:27:15.895Z,51.00
2017-04-18T08:28:13.279Z,51.90
2017-04-18T08:29:10.663Z,50.90
2017-04-18T08:30:08.132Z,51.00
2017-04-18T08:31:05.603Z,50.40
2017-04-18T08:32:03.203Z,51.70
2017-04-18T08:33:00.658Z,54.30
2017-04-18T08:33:58.026Z,51.80
2017-04-18T08:34:56.348Z,51.40
2017-04-18T08:35:53.757Z,52.50
2017-04-18T08:36:51.328Z,52.10
2017-04-18T08:37:48.676Z,50.70
2017-04-18T08:38:46.778Z,52.50
2017-04-18T08:39:44.132Z,52.40
2017-04-18T08:40:42.505Z,53.70
2017-04-18T08:41:40.622Z,52.90
2017-04-18T08:42:38.566Z,52.90
2017-04-18T08:43:36.665Z,53.40
2017-04-18T08:44:34.977Z,53.60
2017-04-18T08:45:33.283Z,53.60
2017-04-18T08:46:31.261Z,54.10
2017-04-18T08:47:29.356Z,55.70
2017-04-18T08:48:26.753Z,55.70
2017-04-18T08:49:24.377Z,55.30
2017-04-18T08:50:21.848Z,54.60
2017-04-18T08:51:19.316Z,55.10
2017-04-18T08:52:16.747Z,53.40
2017-04-18T08:53:14.079Z,52.20
2017-04-18T08:54:12.994Z,53.90
2017-04-18T08:55:10.410Z,53.80
2017-04-18T08:56:08.637Z,51.70
2017-04-18T08:57:06.031Z,51.60
2017-04-18T08:58:03.420Z,52.30
2017-04-18T08:59:01.638Z,55.40
2017-04-18T08:59:58.974Z,55.40
2017-04-18T09:00:56.445Z,53.20
2017-04-18T09:01:54.565Z,52.30
2017-04-18T09:02:52.645Z,54.60
2017-04-18T09:03:50.739Z,53.00
2017-04-18T09:04:48.647Z,52.90
2017-04-18T09:05:46.761Z,55.30
2017-04-18T09:06:44.326Z,55.30
2017-04-18T09:07:42.435Z,53.40
2017-04-18T09:08:39.830Z,53.40
2017-04-18T09:09:37.150Z,52.90
2017-04-18T09:10:34.502Z,52.90
2017-04-18T09:11:31.863Z,52.70
2017-04-18T09:12:30.039Z,52.20
2017-04-18T09:13:27.730Z,52.10
2017-04-18T09:14:25.849Z,57.40
2017-04-18T09:15:23.942Z,53.00
2017-04-18T09:16:21.979Z,52.80
2017-04-18T09:17:19.499Z,52.30
2017-04-18T09:18:18.242Z,53.60
2017-04-18T09:19:15.586Z,53.50
2017-04-18T09:20:13.751Z,48.70
2017-04-18T09:21:12.646Z,48.50
2017-04-18T09:22:10.767Z,48.70
2017-04-18T09:23:08.956Z,48.80
2017-04-18T09:24:06.323Z,48.60
2017-04-18T09:25:04.393Z,48.00
2017-04-18T09:26:01.750Z,50.30
2017-04-18T09:27:00.507Z,48.00
2017-04-18T09:27:58.759Z,47.90
2017-04-18T09:28:56.132Z,45.90
2017-04-18T09:29:53.470Z,48.00
2017-04-18T09:30:50.836Z,47.20
2017-04-18T09:31:48.946Z,48.10
2017-04-18T09:32:46.287Z,47.80
2017-04-18T09:33:43.749Z,46.80
2017-04-18T09:34:41.154Z,46.50
2017-04-18T09:35:39.224Z,47.10
2017-04-18T09:36:36.595Z,46.80
2017-04-18T09:37:35.307Z,44.80
2017-04-18T09:38:32.832Z,44.80
2017-04-18T09:39:30.191Z,44.40
2017-04-18T09:40:27.606Z,43.70
2017-04-18T09:41:26.236Z,44.80
2017-04-18T09:42:24.941Z,46.60
2017-04-18T09:43:23.063Z,44.70
2017-04-18T09:44:21.542Z,44.70
2017-04-18T09:45:19.722Z,46.10
2017-04-18T09:46:17.811Z,47.80
2017-04-18T09:47:15.955Z,47.80
2017-04-18T09:48:13.323Z,46.20
2017-04-18T09:49:10.770Z,45.10
2017-04-18T09:50:08.825Z,44.70
2017-04-18T09:51:06.828Z,43.30
2017-04-18T09:52:04.271Z,43.80
2017-04-18T09:53:01.679Z,46.30
2017-04-18T09:54:00.355Z,47.30
2017-04-18T09:54:58.568Z,49.30
2017-04-18T09:55:57.029Z,49.30
2017-04-18T09:56:54.401Z,48.50
2017-04-18T09:57:51.749Z,45.30
2017-04-18T09:58:49.893Z,49.50
2017-04-18T09:59:47.265Z,50.30
2017-04-18T10:00:46.352Z,44.40
2017-04-18T10:01:44.693Z,41.20
2017-04-18T10:02:42.038Z,41.10
2017-04-18T10:03:39.428Z,42.40
2017-04-18T10:04:36.776Z,42.50
2017-04-18T10:05:34.945Z,43.80
2017-04-18T10:06:32.380Z,43.80
2017-04-18T10:07:29.879Z,47.00
2017-04-18T10:08:27.234Z,44.50
2017-04-18T10:09:24.599Z,44.40
2017-04-18T10:10:23.774Z,43.90
2017-04-18T10:11:21.942Z,43.60
2017-04-18T10:12:19.299Z,43.60
2017-04-18T10:13:16.639Z,43.10
2017-04-18T10:14:13.985Z,43.50
2017-04-18T10:15:12.236Z,43.80
2017-04-18T10:16:10.570Z,43.70
2017-04-18T10:17:08.058Z,43.80
2017-04-18T10:18:05.425Z,41.50
2017-04-18T10:19:02.787Z,42.00
2017-04-18T10:20:00.269Z,41.50
2017-04-18T10:20:59.007Z,43.80
2017-04-18T10:21:57.176Z,42.90
2017-04-18T10:22:55.930Z,42.90
2017-04-18T10:23:53.258Z,42.90
2017-04-18T10:24:50.744Z,42.20
2017-04-18T10:25:48.918Z,38.90
2017-04-18T10:26:46.818Z,39.60
2017-04-18T10:27:45.826Z,39.10
2017-04-18T10:28:44.063Z,38.70
2017-04-18T10:29:42.201Z,40.20
2017-04-18T10:30:39.560Z,40.20
2017-04-18T10:31:38.212Z,41.20
2017-04-18T10:32:35.643Z,41.20
2017-04-18T10:33:35.781Z,40.60
2017-04-18T10:34:34.139Z,44.40
2017-04-18T10:35:31.511Z,44.40
2017-04-18T10:36:29.057Z,48.90
2017-04-18T10:37:26.517Z,52.20
2017-04-18T10:38:24.445Z,53.10
2017-04-18T10:39:21.834Z,53.60
2017-04-18T10:40:19.192Z,54.40
2017-04-18T10:41:17.360Z,54.90
2017-04-18T10:42:16.489Z,54.90
2017-04-18T10:43:14.938Z,54.80
2017-04-18T10:44:13.045Z,53.70
2017-04-18T10:45:10.466Z,53.60
2017-04-18T10:46:09.281Z,51.90
2017-04-18T10:47:06.741Z,51.90
2017-04-18T10:48:04.859Z,52.90
2017-04-18T10:49:02.953Z,52.90
2017-04-18T10:50:00.589Z,52.90
2017-04-18T10:50:57.925Z,53.00
2017-04-18T10:51:56.040Z,52.50
2017-04-18T10:52:53.508Z,52.50
2017-04-18T10:53:50.946Z,52.10
2017-04-18T10:54:48.443Z,53.50
2017-04-18T10:55:46.610Z,54.80
2017-04-18T10:56:44.456Z,54.80
2017-04-18T10:57:41.852Z,54.70
2017-04-18T10:58:39.948Z,53.00
2017-04-18T10:59:37.391Z,53.00
2017-04-18T11:00:34.790Z,54.20
2017-04-18T11:01:32.877Z,53.00
2017-04-18T11:02:31.230Z,53.40
2017-04-18T11:03:29.619Z,52.60
2017-04-18T11:04:26.964Z,52.50
2017-04-18T11:05:24.411Z,51.10
2017-04-18T11:06:21.803Z,49.80
2017-04-18T11:07:19.420Z,51.10
2017-04-18T11:08:17.592Z,49.30
2017-04-18T11:09:14.965Z,49.30
2017-04-18T11:10:12.324Z,48.80
2017-04-18T11:11:10.534Z,48.50
2017-04-18T11:12:07.912Z,48.60
2017-04-18T11:13:05.273Z,49.90
2017-04-18T11:14:02.632Z,47.60
2017-04-18T11:15:00.497Z,47.60
2017-04-18T11:15:59.537Z,47.20
2017-04-18T11:16:56.927Z,47.20
2017-04-18T11:17:54.329Z,48.50
2017-04-18T11:18:52.690Z,47.40
2017-04-18T11:19:50.051Z,47.30
2017-04-18T11:20:47.702Z,47.50
2017-04-18T11:21:46.846Z,46.10
2017-04-18T11:22:44.190Z,46.00
2017-04-18T11:23:41.513Z,46.60
2017-04-18T11:24:38.922Z,51.20
2017-04-18T11:25:36.314Z,47.50
2017-04-18T11:26:33.809Z,46.50
2017-04-18T11:27:31.246Z,47.90
2017-04-18T11:28:28.636Z,48.70
2017-04-18T11:29:26.723Z,46.40
2017-04-18T11:30:24.864Z,45.50
2017-04-18T11:31:22.226Z,45.40
2017-04-18T11:32:19.861Z,46.60
2017-04-18T11:33:17.986Z,45.40
2017-04-18T11:34:15.367Z,45.30
2017-04-18T11:35:12.785Z,45.40
2017-04-18T11:36:10.884Z,43.40
2017-04-18T11:37:08.462Z,43.50
2017-04-18T11:38:05.888Z,48.70
2017-04-18T11:39:04.122Z,45.30
2017-04-18T11:40:01.464Z,47.10
2017-04-18T11:40:58.885Z,43.40
2017-04-18T11:41:56.959Z,45.70
2017-04-18T11:42:54.395Z,45.60
2017-04-18T11:43:51.725Z,44.00
2017-04-18T11:44:49.923Z,47.00
2017-04-18T11:45:48.065Z,45.40
2017-04-18T11:46:46.034Z,45.40
2017-04-18T11:47:43.468Z,44.80
2017-04-18T11:48:40.949Z,42.30
2017-04-18T11:49:38.957Z,37.10
2017-04-18T11:50:36.270Z,37.60
2017-04-18T11:51:34.611Z,37.10
2017-04-18T11:52:31.987Z,38.40
2017-04-18T11:53:29.409Z,38.90
2017-04-18T11:54:27.731Z,43.30
2017-04-18T11:55:26.536Z,43.40
2017-04-18T11:56:23.923Z,43.30
2017-04-18T11:57:21.262Z,39.50
2017-04-18T11:58:18.612Z,40.50
2017-04-18T11:59:16.703Z,44.40
2017-04-18T12:00:14.981Z,41.10
2017-04-18T12:01:13.640Z,41.10
2017-04-18T12:02:11.073Z,41.50
2017-04-18T12:03:09.058Z,41.00
2017-04-18T12:04:06.448Z,42.50
2017-04-18T12:05:03.941Z,39.70
2017-04-18T12:06:01.294Z,39.00
2017-04-18T12:06:59.466Z,36.40
2017-04-18T12:07:56.898Z,36.30
2017-04-18T12:08:55.981Z,36.80
2017-04-18T12:09:54.077Z,38.30
2017-04-18T12:10:53.185Z,39.50
2017-04-18T12:11:50.551Z,39.40
2017-04-18T12:12:50.069Z,40.60
2017-04-18T12:13:48.958Z,39.20
2017-04-18T12:14:46.304Z,39.20
2017-04-18T12:15:43.741Z,38.00
2017-04-18T12:16:41.970Z,39.80
2017-04-18T12:17:39.339Z,39.70
2017-04-18T12:18:37.438Z,43.10
2017-04-18T12:19:34.912Z,43.00
2017-04-18T12:20:32.363Z,43.10
2017-04-18T12:21:30.483Z,45.30
2017-04-18T12:22:27.852Z,45.30
2017-04-18T12:23:25.199Z,45.70
2017-04-18T12:24:22.544Z,46.20
2017-04-18T12:25:20.031Z,46.60
2017-04-18T12:26:18.305Z,48.00